Time;durP1;ratioP1;P1;durP2;ratioP2;P2;SDS_P1;SDS_P2;PMS_P1;PMS_P2;Temp;Humidity;BMP_temperature;BMP_pressure;BME280_temperature;BME280_humidity;BME280_pressure;Samples;Min_cycle;Max_cycle;Signal;HPM_P1;HPM_P2
2022/11/28 00:01:23;;;;;;;41.28;13.88;;;;;;;3.49;100.00;99601.56;4469554;32;20442;-74
2022/11/28 00:03:50;;;;;;;43.45;13.35;;;;;;;3.49;100.00;99604.16;4469576;32;20627;-74
2022/11/28 00:06:18;;;;;;;35.80;12.95;;;;;;;3.36;100.00;99606.44;4469486;32;20109;-74
2022/11/28 00:08:45;;;;;;;41.25;13.25;;;;;;;3.43;100.00;99602.66;4476692;32;20100;-74
2022/11/28 00:11:15;;;;;;;37.40;12.85;;;;;;;3.43;100.00;99604.44;4485363;31;20167;-74
2022/11/28 00:13:43;;;;;;;40.12;13.25;;;;;;;3.40;100.00;99604.56;4485036;31;20148;-74
2022/11/28 00:16:17;;;;;;;40.58;14.25;;;;;;;3.46;100.00;99619.84;4485255;31;20108;-74
2022/11/28 00:18:44;;;;;;;43.63;13.20;;;;;;;3.33;100.00;99609.19;4485039;32;20493;-74
2022/11/28 00:21:13;;;;;;;43.70;15.32;;;;;;;3.40;100.00;99601.97;4475054;31;20566;-74
2022/11/28 00:23:41;;;;;;;38.15;14.27;;;;;;;3.46;100.00;99601.69;4469279;32;20096;-74
2022/11/28 00:26:15;;;;;;;41.70;14.13;;;;;;;3.46;100.00;99599.09;4469207;32;20092;-74
2022/11/28 00:28:42;;;;;;;40.65;13.13;;;;;;;3.49;100.00;99598.97;4468982;32;20595;-74
2022/11/28 00:31:14;;;;;;;41.55;13.40;;;;;;;3.52;100.00;99593.62;4469090;32;20105;-74
2022/11/28 00:33:41;;;;;;;41.20;12.32;;;;;;;3.56;100.00;99595.19;4469121;32;20088;-74
2022/11/28 00:36:09;;;;;;;39.53;12.85;;;;;;;3.47;100.00;99599.03;4469013;32;20118;-74
2022/11/28 00:38:37;;;;;;;36.65;11.82;;;;;;;3.48;100.00;99600.72;4469030;32;20113;-74
2022/11/28 00:41:06;;;;;;;34.35;10.88;;;;;;;3.45;100.00;99602.59;4469012;32;20101;-74
2022/11/28 00:43:33;;;;;;;42.25;11.98;;;;;;;3.51;100.00;99594.53;4469031;32;20096;-74
2022/11/28 00:46:01;;;;;;;47.03;12.98;;;;;;;3.58;100.00;99605.47;4468895;32;20093;-74
2022/11/28 00:48:29;;;;;;;42.15;12.30;;;;;;;3.59;100.00;99608.00;4468788;32;20165;-74
2022/11/28 00:51:07;;;;;;;45.83;12.32;;;;;;;3.58;100.00;99606.31;4468759;32;20109;-74
2022/11/28 00:53:35;;;;;;;48.53;12.32;;;;;;;3.43;100.00;99600.09;4468909;32;20111;-74
2022/11/28 00:56:04;;;;;;;36.35;10.88;;;;;;;3.32;100.00;99603.16;4468747;32;20117;-74
2022/11/28 00:58:33;;;;;;;36.85;11.68;;;;;;;3.45;100.00;99600.00;4468402;32;20084;-74
2022/11/28 01:01:09;;;;;;;35.60;12.27;;;;;;;3.51;100.00;99600.59;4468564;32;20089;-73
2022/11/28 01:03:37;;;;;;;38.70;10.45;;;;;;;3.51;100.00;99607.50;4468696;32;20123;-74
2022/11/28 01:06:05;;;;;;;27.45;9.75;;;;;;;3.57;100.00;99602.03;4468759;32;20093;-74
2022/11/28 01:08:32;;;;;;;33.40;11.30;;;;;;;3.60;100.00;99601.88;4474732;32;20156;-74
2022/11/28 01:10:59;;;;;;;32.55;10.80;;;;;;;3.54;100.00;99600.44;4484112;31;20152;-74
2022/11/28 01:13:27;;;;;;;34.72;9.90;;;;;;;3.46;100.00;99593.94;4484317;31;20449;-74
2022/11/28 01:15:54;;;;;;;30.02;9.23;;;;;;;3.50;100.00;99595.47;4484568;31;20092;-74
2022/11/28 01:18:21;;;;;;;30.10;10.40;;;;;;;3.59;100.00;99595.03;4484483;31;20145;-74
2022/11/28 01:20:48;;;;;;;33.20;10.25;;;;;;;3.55;100.00;99588.31;4478830;31;20156;-73
2022/11/28 01:23:17;;;;;;;31.40;10.65;;;;;;;3.62;100.00;99591.44;4470502;32;20084;-73
2022/11/28 01:25:44;;;;;;;29.52;10.98;;;;;;;3.51;100.00;99591.94;4470427;32;20552;-73
2022/11/28 01:28:11;;;;;;;34.20;11.90;;;;;;;3.36;100.00;99586.59;4470611;32;20111;-74
2022/11/28 01:30:38;;;;;;;27.35;9.18;;;;;;;3.20;100.00;99589.03;4470398;32;20114;-73
2022/11/28 01:33:05;;;;;;;33.25;10.23;;;;;;;3.26;100.00;99590.50;4470467;32;20127;-74
2022/11/28 01:35:33;;;;;;;37.35;11.15;;;;;;;3.28;100.00;99596.44;4470694;32;20100;-73
2022/11/28 01:38:00;;;;;;;30.80;11.23;;;;;;;3.39;100.00;99580.41;4470467;32;20085;-74
2022/11/28 01:40:27;;;;;;;43.17;13.00;;;;;;;3.37;100.00;99579.66;4470704;32;20156;-74
2022/11/28 01:42:54;;;;;;;40.88;11.63;;;;;;;3.45;100.00;99579.28;4470388;32;20198;-73
2022/11/28 01:45:24;;;;;;;30.95;11.77;;;;;;;3.38;100.00;99570.97;4470379;32;20093;-74
2022/11/28 01:47:52;;;;;;;35.67;10.73;;;;;;;3.30;100.00;99571.34;4470412;32;20096;-74
2022/11/28 01:50:21;;;;;;;31.92;11.23;;;;;;;3.22;100.00;99565.66;4468894;32;20116;-74
2022/11/28 01:52:52;;;;;;;28.12;10.75;;;;;;;3.27;100.00;99561.13;4470360;32;20119;-74
2022/11/28 01:55:23;;;;;;;30.75;9.82;;;;;;;3.20;100.00;99562.31;4469135;32;20776;-74
2022/11/28 01:57:51;;;;;;;31.05;10.57;;;;;;;3.22;100.00;99562.25;4469029;32;20148;-74
2022/11/28 02:00:19;;;;;;;27.20;10.32;;;;;;;2.89;100.00;99553.34;4468645;32;20453;-74
2022/11/28 02:02:52;;;;;;;30.25;10.27;;;;;;;2.87;100.00;99555.16;4470159;32;20469;-73
2022/11/28 02:05:20;;;;;;;29.48;11.23;;;;;;;2.71;100.00;99549.00;4468974;32;20181;-74
2022/11/28 02:07:48;;;;;;;31.75;10.98;;;;;;;2.53;100.00;99546.31;4471406;32;20105;-74
2022/11/28 02:10:27;;;;;;;29.20;10.07;;;;;;;2.45;100.00;99545.78;4484489;32;20148;-74
2022/11/28 02:13:03;;;;;;;32.35;10.82;;;;;;;2.45;100.00;99548.38;4484596;32;20124;-73
2022/11/28 02:16:03;;;;;;;26.58;10.43;;;;;;;2.42;100.00;99536.44;4485816;31;20410;-74
2022/11/28 02:18:46;;;;;;;34.80;10.55;;;;;;;2.28;100.00;99542.19;4485916;31;20155;-74
2022/11/28 02:21:31;;;;;;;26.65;9.35;;;;;;;2.27;100.00;99537.06;4474064;32;20103;-74
2022/11/28 02:24:12;;;;;;;25.47;9.77;;;;;;;2.09;100.00;99541.28;4470020;32;20864;-74
2022/11/28 02:27:05;;;;;;;28.77;10.25;;;;;;;2.08;100.00;99535.28;4470100;32;20661;-74
2022/11/28 02:30:00;;;;;;;31.37;10.77;;;;;;;1.97;100.00;99536.63;4470241;32;20162;-74
2022/11/28 02:32:43;;;;;;;28.75;9.90;;;;;;;1.77;100.00;99533.12;4470051;32;20164;-74
2022/11/28 02:35:18;;;;;;;37.95;10.10;;;;;;;1.81;100.00;99531.28;4470100;32;20486;-74
2022/11/28 02:37:56;;;;;;;33.58;10.82;;;;;;;1.78;100.00;99529.66;4468733;32;20175;-74
2022/11/28 02:40:28;;;;;;;32.70;11.30;;;;;;;1.90;100.00;99530.88;4469865;32;20157;-74
2022/11/28 02:43:07;;;;;;;35.60;10.80;;;;;;;1.95;100.00;99534.97;4469968;32;20085;-74
2022/11/28 02:45:49;;;;;;;30.27;9.98;;;;;;;2.06;100.00;99531.06;4468657;32;20109;-73
2022/11/28 02:48:53;;;;;;;35.03;12.43;;;;;;;2.16;100.00;99526.38;4468766;32;20105;-74
2022/11/28 02:51:28;;;;;;;39.38;11.55;;;;;;;2.18;100.00;99529.72;4468603;32;20092;-74
2022/11/28 02:53:55;;;;;;;;;;;;;;;2.12;100.00;99516.16;4469023;32;20073;-74
2022/11/28 02:56:24;;;;;;;48.30;10.23;;;;;;;2.20;100.00;99513.25;4468818;32;20048;-74
2022/11/28 02:58:51;;;;;;;75.53;12.32;;;;;;;2.15;100.00;99510.03;4469661;32;20484;-74
2022/11/28 03:01:23;;;;;;;85.40;13.05;;;;;;;2.22;100.00;99514.00;4469805;32;20123;-73
2022/11/28 03:04:06;;;;;;;75.45;12.85;;;;;;;2.22;100.00;99514.00;4469917;32;20168;-74
2022/11/28 03:07:06;;;;;;;53.65;10.70;;;;;;;2.33;100.00;99512.72;4468764;32;20109;-74
2022/11/28 03:09:42;;;;;;;30.55;11.45;;;;;;;2.34;100.00;99506.66;4482391;32;20111;-74
2022/11/28 03:12:20;;;;;;;33.80;10.57;;;;;;;2.37;100.00;99514.28;4485496;31;20119;-73
2022/11/28 03:14:54;;;;;;;36.25;11.30;;;;;;;2.47;100.00;99506.03;4485523;31;20439;-74
2022/11/28 03:17:30;;;;;;;36.88;10.98;;;;;;;2.49;100.00;99503.38;4485473;31;20105;-73
2022/11/28 03:20:04;;;;;;;31.80;11.05;;;;;;;2.44;100.00;99506.19;4483615;31;20096;-73
2022/11/28 03:23:00;;;;;;;36.70;10.52;;;;;;;2.46;100.00;99490.59;4469679;32;20148;-73
2022/11/28 03:25:57;;;;;;;95.35;12.57;;;;;;;2.42;100.00;99491.63;4469648;32;20475;-73
2022/11/28 03:28:34;;;;;;;58.28;13.55;;;;;;;2.36;100.00;99491.91;4469753;32;20123;-73
2022/11/28 03:31:12;;;;;;;53.17;11.80;;;;;;;2.34;100.00;99483.37;4468674;32;20127;-73
2022/11/28 03:33:44;;;;;;;38.50;10.70;;;;;;;2.48;100.00;99476.69;4468460;32;20477;-73
2022/11/28 03:36:21;;;;;;;104.00;13.98;;;;;;;2.53;100.00;99473.91;4468386;32;20199;-73
2022/11/28 03:38:53;;;;;;;55.03;11.77;;;;;;;2.62;100.00;99470.03;4468451;32;20157;-73
2022/11/28 03:41:26;;;;;;;52.85;11.63;;;;;;;2.70;100.00;99467.13;4469348;32;20073;-74
2022/11/28 03:43:55;;;;;;;37.08;11.25;;;;;;;2.39;100.00;99461.59;4469690;32;20093;-73
2022/11/28 03:46:26;;;;;;;41.92;13.35;;;;;;;2.48;100.00;99460.31;4468229;32;20518;-74
2022/11/28 03:48:57;;;;;;;28.10;10.80;;;;;;;2.32;100.00;99457.59;4468271;32;20088;-73
2022/11/28 03:51:35;;;;;;;30.52;10.48;;;;;;;2.43;100.00;99452.75;4469306;32;20638;-73
2022/11/28 03:54:07;;;;;;;32.83;11.20;;;;;;;2.40;100.00;99459.84;4469472;32;20155;-73
2022/11/28 03:56:56;;;;;;;40.03;11.60;;;;;;;2.31;100.00;99453.31;4469289;32;20464;-73
2022/11/28 03:59:28;;;;;;;33.25;10.02;;;;;;;2.18;100.00;99447.00;4468059;32;20581;-73
2022/11/28 04:02:05;;;;;;;37.30;10.35;;;;;;;2.14;100.00;99451.47;4467887;32;20164;-73
2022/11/28 04:05:04;;;;;;;30.75;10.77;;;;;;;2.22;100.00;99445.97;4469519;32;20112;-73
2022/11/28 04:07:44;;;;;;;35.92;11.18;;;;;;;2.18;100.00;99434.94;4459006;32;20114;-73
2022/11/28 04:10:36;;;;;;;39.55;11.90;;;;;;;2.21;100.00;99434.81;4468113;32;20108;-73
2022/11/28 04:13:28;;;;;;;36.45;11.55;;;;;;;2.23;100.00;99440.72;4467960;32;20127;-73
2022/11/28 04:16:22;;;;;;;32.08;11.20;;;;;;;2.25;100.00;99438.91;4467992;32;20148;-73
2022/11/28 04:18:55;;;;;;;34.58;10.43;;;;;;;2.13;100.00;99431.69;4469557;32;20092;-73
2022/11/28 04:21:25;;;;;;;32.58;11.00;;;;;;;2.17;100.00;99429.84;4480261;32;20096;-73
2022/11/28 04:23:54;;;;;;;28.45;9.77;;;;;;;2.21;100.00;99434.81;4484892;31;20148;-74
2022/11/28 04:26:26;;;;;;;32.33;12.02;;;;;;;2.16;100.00;99431.56;4483444;32;20518;-73
2022/11/28 04:28:55;;;;;;;38.30;11.25;;;;;;;2.24;100.00;99433.81;4483410;32;20468;-74
2022/11/28 04:31:23;;;;;;;31.35;10.30;;;;;;;2.15;100.00;99427.31;4485196;31;20112;-74
2022/11/28 04:33:55;;;;;;;24.30;10.75;;;;;;;2.24;100.00;99423.47;4483579;32;21007;-73
2022/11/28 04:36:23;;;;;;;33.63;11.85;;;;;;;2.31;100.00;99425.72;4483709;32;20096;-74
2022/11/28 04:38:55;;;;;;;25.10;11.10;;;;;;;2.40;100.00;99428.81;4483368;32;20156;-73
2022/11/28 04:41:29;;;;;;;28.60;10.05;;;;;;;2.41;100.00;99430.50;4484875;31;20092;-74
2022/11/28 04:44:05;;;;;;;39.23;10.60;;;;;;;2.36;100.00;99425.50;4484689;31;20185;-73
2022/11/28 04:46:42;;;;;;;31.83;10.43;;;;;;;2.27;100.00;99426.78;4483392;32;20187;-73
2022/11/28 04:49:09;;;;;;;26.80;9.70;;;;;;;2.16;100.00;99431.56;4483315;32;20076;-73
2022/11/28 04:51:40;;;;;;;34.08;11.20;;;;;;;2.18;100.00;99428.91;4483101;32;20096;-74
2022/11/28 04:54:15;;;;;;;31.50;10.30;;;;;;;2.20;100.00;99420.19;4485030;31;20516;-73
2022/11/28 04:56:53;;;;;;;35.85;11.25;;;;;;;2.13;100.00;99418.78;4485273;32;20162;-73
2022/11/28 04:59:21;;;;;;;25.33;9.25;;;;;;;2.06;100.00;99420.81;4484993;32;20118;-73
2022/11/28 05:01:48;;;;;;;30.10;9.73;;;;;;;2.14;100.00;99415.28;4485966;31;20756;-74
2022/11/28 05:04:16;;;;;;;33.10;11.38;;;;;;;2.12;100.00;99422.28;4485200;32;20100;-74
2022/11/28 05:06:44;;;;;;;28.40;9.88;;;;;;;2.19;100.00;99422.84;4485066;32;20112;-74
2022/11/28 05:09:11;;;;;;;29.12;10.30;;;;;;;2.30;100.00;99418.03;4475648;31;20848;-74
2022/11/28 05:11:39;;;;;;;29.83;10.35;;;;;;;2.18;100.00;99426.31;4470571;32;20123;-74
2022/11/28 05:14:06;;;;;;;31.58;10.32;;;;;;;2.18;100.00;99423.75;4470372;32;20861;-74
2022/11/28 05:16:34;;;;;;;32.13;11.20;;;;;;;2.21;100.00;99424.47;4470268;32;20537;-74
2022/11/28 05:19:01;;;;;;;35.60;11.50;;;;;;;2.25;100.00;99423.41;4470162;32;20164;-74
2022/11/28 05:21:28;;;;;;;35.08;11.95;;;;;;;2.18;100.00;99427.19;4482020;32;20163;-75
2022/11/28 05:23:55;;;;;;;30.90;11.38;;;;;;;2.33;100.00;99429.97;4484772;32;20096;-74
2022/11/28 05:26:22;;;;;;;32.00;10.73;;;;;;;2.19;100.00;99433.19;4485661;32;20096;-74
2022/11/28 05:28:50;;;;;;;29.83;10.38;;;;;;;2.33;100.00;99435.16;4484513;31;20156;-74
2022/11/28 05:31:20;;;;;;;32.30;11.68;;;;;;;2.40;100.00;99436.56;4483305;31;20640;-74
2022/11/28 05:33:47;;;;;;;25.95;10.98;;;;;;;2.43;100.00;99439.00;4485521;32;20138;-74
2022/11/28 05:36:15;;;;;;;30.80;11.27;;;;;;;2.44;100.00;99443.28;4485895;31;20151;-74
2022/11/28 05:38:43;;;;;;;32.90;11.93;;;;;;;2.48;100.00;99440.50;4485498;31;20377;-74
2022/11/28 05:41:18;;;;;;;29.05;10.55;;;;;;;2.34;100.00;99442.84;4486121;31;20541;-74
2022/11/28 05:43:46;;;;;;;29.48;10.32;;;;;;;2.43;100.00;99447.59;4485217;31;20198;-74
2022/11/28 05:46:13;;;;;;;28.23;10.18;;;;;;;2.48;100.00;99455.16;4485070;31;20159;-74
2022/11/28 05:48:40;;;;;;;30.73;11.25;;;;;;;2.45;100.00;99447.53;4485408;31;20868;-74
2022/11/28 05:51:08;;;;;;;32.78;10.95;;;;;;;2.47;100.00;99450.91;4485820;31;20605;-73
2022/11/28 05:53:35;;;;;;;33.03;11.20;;;;;;;2.41;100.00;99446.00;4485167;31;20114;-74
2022/11/28 05:56:10;;;;;;;39.72;12.25;;;;;;;2.37;100.00;99454.81;4484751;31;20520;-73
2022/11/28 05:58:37;;;;;;;42.95;12.77;;;;;;;2.24;100.00;99452.75;4484746;31;20148;-73
2022/11/28 06:01:25;;;;;;;35.47;12.40;;;;;;;2.31;100.00;99456.72;4485046;31;20104;-73
2022/11/28 06:03:57;;;;;;;38.08;12.05;;;;;;;2.34;100.00;99452.34;4481842;31;20110;-73
2022/11/28 06:06:24;;;;;;;32.58;11.15;;;;;;;2.28;100.00;99451.69;4484632;31;20096;-73
2022/11/28 06:08:52;;;;;;;36.30;11.48;;;;;;;2.29;100.00;99458.56;4484605;31;20536;-73
2022/11/28 06:11:20;;;;;;;36.65;11.70;;;;;;;2.32;100.00;99457.59;4484514;31;20112;-73
2022/11/28 06:13:48;;;;;;;31.67;10.82;;;;;;;2.38;100.00;99464.25;4482637;31;20138;-73
2022/11/28 06:16:18;;;;;;;38.22;11.68;;;;;;;2.41;100.00;99464.09;4481116;32;20472;-75
2022/11/28 06:18:46;;;;;;;33.20;12.20;;;;;;;2.44;100.00;99458.78;4470018;32;20134;-75
2022/11/28 06:21:14;;;;;;;32.58;10.77;;;;;;;2.43;100.00;99457.94;4482807;32;20101;-74
2022/11/28 06:23:42;;;;;;;31.48;11.98;;;;;;;2.39;100.00;99456.41;4483499;32;20096;-74
2022/11/28 06:26:11;;;;;;;36.30;10.88;;;;;;;2.53;100.00;99448.03;4476707;31;20204;-75
2022/11/28 06:28:39;;;;;;;39.38;12.68;;;;;;;2.56;100.00;99455.66;4484201;31;20119;-76
2022/11/28 06:31:15;;;;;;;28.20;9.90;;;;;;;2.47;100.00;99450.91;4481523;32;20146;-74
2022/11/28 06:33:42;;;;;;;32.35;11.93;;;;;;;2.48;100.00;99444.81;4479078;32;20118;-75
2022/11/28 06:36:10;;;;;;;38.70;11.18;;;;;;;2.55;100.00;99450.56;4484645;31;20091;-75
2022/11/28 06:38:37;;;;;;;30.58;9.90;;;;;;;2.58;100.00;99455.59;4484422;32;20628;-75
2022/11/28 06:41:07;;;;;;;31.40;10.93;;;;;;;2.66;100.00;99453.47;4484659;31;20354;-75
2022/11/28 06:43:34;;;;;;;38.85;13.07;;;;;;;2.65;100.00;99452.66;4484104;31;20126;-75
2022/11/28 06:46:01;;;;;;;30.00;10.65;;;;;;;2.72;100.00;99450.59;4483447;31;20135;-75
2022/11/28 06:48:28;;;;;;;44.58;12.25;;;;;;;2.75;100.00;99447.88;4483964;31;20149;-74
2022/11/28 06:51:04;;;;;;;34.05;11.80;;;;;;;2.72;100.00;99448.03;4483804;31;20529;-75
2022/11/28 06:53:32;;;;;;;38.30;11.12;;;;;;;2.77;100.00;99455.56;4484681;31;20126;-76
2022/11/28 06:56:10;;;;;;;23.92;9.73;;;;;;;2.77;100.00;99466.78;4483325;31;20111;-77
2022/11/28 06:58:37;;;;;;;30.10;10.82;;;;;;;2.74;100.00;99466.06;4483818;31;20175;-76
2022/11/28 07:01:16;;;;;;;29.80;10.30;;;;;;;2.78;100.00;99457.25;4482571;31;20132;-77
2022/11/28 07:03:44;;;;;;;32.35;10.43;;;;;;;2.92;100.00;99457.47;4483279;32;20100;-76
2022/11/28 07:06:12;;;;;;;34.10;11.23;;;;;;;2.95;100.00;99459.06;4484600;31;20135;-77
2022/11/28 07:08:40;;;;;;;33.65;12.30;;;;;;;3.01;100.00;99451.00;4470435;31;20097;-76
2022/11/28 07:11:12;;;;;;;35.22;12.02;;;;;;;3.00;100.00;99451.94;4470147;32;20465;-76
2022/11/28 07:13:40;;;;;;;28.20;11.07;;;;;;;2.85;100.00;99458.66;4482951;31;20170;-77
2022/11/28 07:16:13;;;;;;;35.42;11.80;;;;;;;2.63;100.00;99464.81;4470967;32;20112;-76
2022/11/28 07:18:40;;;;;;;37.15;12.57;;;;;;;2.55;100.00;99460.91;4478230;31;20105;-78
2022/11/28 07:21:08;;;;;;;35.65;12.60;;;;;;;2.65;100.00;99464.75;4475205;31;20117;-79
2022/11/28 07:23:35;;;;;;;29.65;11.48;;;;;;;2.76;100.00;99461.66;4471979;32;20095;-76
2022/11/28 07:26:03;;;;;;;36.50;11.80;;;;;;;2.85;100.00;99463.84;4484193;31;20100;-76
2022/11/28 07:28:31;;;;;;;29.90;11.63;;;;;;;2.88;100.00;99468.00;4481779;31;20148;-76
2022/11/28 07:31:13;;;;;;;31.20;11.23;;;;;;;2.75;100.00;99467.75;4481907;32;20175;-76
2022/11/28 07:33:43;;;;;;;39.25;13.73;;;;;;;2.90;100.00;99469.63;4483912;31;20125;-74
2022/11/28 07:36:13;;;;;;;28.80;11.70;;;;;;;2.68;100.00;99456.84;4484412;31;20578;-74
2022/11/28 07:38:40;;;;;;;37.05;14.38;;;;;;;2.72;100.00;99452.37;4484260;31;20112;-74
2022/11/28 07:41:10;;;;;;;37.53;13.60;;;;;;;2.41;100.00;99459.75;4479790;31;20173;-76
2022/11/28 07:43:38;;;;;;;41.03;15.15;;;;;;;2.44;100.00;99453.63;4469303;32;20144;-75
2022/11/28 07:46:07;;;;;;;30.73;11.40;;;;;;;2.55;100.00;99456.56;4473497;32;20502;-75
2022/11/28 07:48:34;;;;;;;34.67;13.02;;;;;;;2.66;100.00;99449.16;4483597;31;20093;-74
2022/11/28 07:51:10;;;;;;;38.70;13.43;;;;;;;2.48;100.00;99443.06;4479833;32;20808;-74
2022/11/28 07:53:38;;;;;;;29.45;9.85;;;;;;;2.46;100.00;99441.47;4480132;32;20480;-76
2022/11/28 07:56:08;;;;;;;37.20;10.88;;;;;;;2.59;100.00;99440.00;4484667;31;20159;-73
2022/11/28 07:58:37;;;;;;;37.22;12.10;;;;;;;2.69;100.00;99434.41;4476842;32;206651;-75
2022/11/28 08:01:09;;;;;;;35.13;11.35;;;;;;;2.48;100.00;99439.63;4483152;31;20101;-75
2022/11/28 08:03:37;;;;;;;34.08;11.85;;;;;;;2.56;100.00;99442.72;4485160;31;20092;-75
2022/11/28 08:06:05;;;;;;;38.05;11.02;;;;;;;2.70;100.00;99443.84;4483621;31;20088;-75
2022/11/28 08:08:32;;;;;;;33.38;11.07;;;;;;;2.74;100.00;99445.37;4484899;31;20092;-75
2022/11/28 08:11:00;;;;;;;32.33;10.85;;;;;;;2.72;100.00;99448.03;4484412;31;20426;-76
2022/11/28 08:13:28;;;;;;;31.50;10.82;;;;;;;2.70;100.00;99454.19;4484335;31;20509;-76
2022/11/28 08:15:55;;;;;;;30.17;10.88;;;;;;;2.69;100.00;99447.34;4485045;31;20174;-78
2022/11/28 08:18:23;;;;;;;29.87;9.82;;;;;;;2.66;100.00;99448.31;4484211;31;20096;-73
2022/11/28 08:20:50;;;;;;;30.12;11.07;;;;;;;2.53;100.00;99440.28;4481081;31;20160;-74
2022/11/28 08:23:17;;;;;;;32.65;10.32;;;;;;;2.54;100.00;99449.69;4478171;32;20153;-71
2022/11/28 08:25:44;;;;;;;30.80;11.30;;;;;;;2.77;100.00;99453.84;4476652;32;20104;-71
2022/11/28 08:28:11;;;;;;;27.33;9.93;;;;;;;2.57;100.00;99452.13;4476132;31;20092;-72
2022/11/28 08:30:38;;;;;;;28.27;9.63;;;;;;;2.59;100.00;99454.66;4477863;32;20148;-72
2022/11/28 08:33:06;;;;;;;25.33;10.25;;;;;;;2.62;100.00;99446.75;4475437;32;20579;-73
2022/11/28 08:35:33;;;;;;;29.30;9.38;;;;;;;2.78;100.00;99449.50;4473961;31;20095;-73
2022/11/28 08:38:00;;;;;;;31.00;9.55;;;;;;;2.77;100.00;99458.16;4475422;32;20127;-72
2022/11/28 08:40:28;;;;;;;26.12;9.60;;;;;;;2.74;100.00;99455.72;4481104;32;20123;-72
2022/11/28 08:42:57;;;;;;;28.77;9.07;;;;;;;2.55;100.00;99459.13;4482771;31;20096;-71
2022/11/28 08:45:24;;;;;;;24.30;8.35;;;;;;;2.65;100.00;99457.00;4483444;31;20135;-73
2022/11/28 08:47:51;;;;;;;26.48;9.70;;;;;;;2.57;100.00;99462.50;4483416;32;20153;-72
2022/11/28 08:50:18;;;;;;;25.60;10.23;;;;;;;2.45;100.00;99452.69;4483561;31;20862;-73
2022/11/28 08:52:45;;;;;;;25.70;10.38;;;;;;;2.51;100.00;99455.00;4470921;31;20104;-72
2022/11/28 08:55:13;;;;;;;36.03;12.52;;;;;;;2.46;100.00;99456.97;4466102;32;20150;-72
2022/11/28 08:57:40;;;;;;;24.48;8.68;;;;;;;2.30;100.00;99452.50;4466427;32;20143;-72
2022/11/28 09:00:07;;;;;;;24.63;9.55;;;;;;;2.47;100.00;99456.06;4480813;32;20096;-73
2022/11/28 09:02:34;;;;;;;28.98;10.05;;;;;;;2.47;100.00;99458.66;4483079;31;20147;-73
2022/11/28 09:05:01;;;;;;;27.08;9.23;;;;;;;2.53;100.00;99454.94;4475079;31;20108;-73
2022/11/28 09:07:28;;;;;;;29.67;10.07;;;;;;;2.64;100.00;99453.53;4467104;32;20089;-73
2022/11/28 09:09:56;;;;;;;28.67;9.68;;;;;;;2.65;100.00;99452.66;4482578;32;20904;-72
2022/11/28 09:12:23;;;;;;;24.30;8.90;;;;;;;2.53;100.00;99450.63;4482292;32;20472;-74
2022/11/28 09:14:50;;;;;;;28.45;9.68;;;;;;;2.54;100.00;99447.09;4483391;32;20069;-74
2022/11/28 09:17:17;;;;;;;24.35;10.57;;;;;;;2.67;100.00;99447.41;4482182;32;20121;-74
2022/11/28 09:19:44;;;;;;;31.73;10.77;;;;;;;2.75;100.00;99441.88;4470822;31;20367;-71
2022/11/28 09:22:11;;;;;;;27.92;11.20;;;;;;;2.80;100.00;99440.75;4482501;31;20167;-72
2022/11/28 09:24:39;;;;;;;37.22;11.05;;;;;;;2.92;100.00;99443.66;4482973;32;20648;-74
2022/11/28 09:27:06;;;;;;;23.20;9.02;;;;;;;2.80;100.00;99445.94;4483217;31;20172;-74
2022/11/28 09:29:33;;;;;;;27.37;9.35;;;;;;;3.01;100.00;99436.31;4482459;31;20153;-74
2022/11/28 09:32:00;;;;;;;33.80;10.90;;;;;;;2.93;100.00;99451.34;4481943;31;20103;-74
2022/11/28 09:34:27;;;;;;;30.27;10.80;;;;;;;2.84;100.00;99434.50;4483026;31;20164;-74
2022/11/28 09:36:55;;;;;;;28.60;9.75;;;;;;;2.84;100.00;99442.28;4479113;32;20515;-77
2022/11/28 09:39:28;;;;;;;25.80;10.52;;;;;;;2.86;100.00;99431.84;4472424;31;20152;-77
2022/11/28 09:42:24;;;;;;;23.20;9.98;;;;;;;2.67;100.00;99426.72;4467535;32;20092;-77
2022/11/28 09:44:56;;;;;;;21.08;7.97;;;;;;;2.69;100.00;99418.88;4471646;32;20147;-77
2022/11/28 09:47:26;;;;;;;28.35;10.13;;;;;;;2.65;100.00;99421.59;4484801;31;20088;-77
2022/11/28 09:50:13;;;;;;;27.85;10.05;;;;;;;2.62;100.00;99421.75;4483586;31;20481;-77
2022/11/28 09:52:59;;;;;;;28.33;10.70;;;;;;;2.67;100.00;99409.44;4481688;32;20126;-77
2022/11/28 09:55:31;;;;;;;30.30;10.63;;;;;;;2.71;100.00;99398.94;4485631;31;20084;-77
2022/11/28 09:58:00;;;;;;;20.30;8.95;;;;;;;2.85;100.00;99396.56;4483227;32;20139;-77
2022/11/28 10:00:35;;;;;;;22.90;9.10;;;;;;;2.92;100.00;99392.78;4483324;32;20143;-77
2022/11/28 10:03:15;;;;;;;27.77;9.50;;;;;;;2.87;100.00;99389.53;4482167;32;20108;-77
2022/11/28 10:05:54;;;;;;;28.33;11.20;;;;;;;3.01;100.00;99391.47;4483105;31;20096;-77
2022/11/28 10:08:21;;;;;;;28.83;8.93;;;;;;;2.94;100.00;99390.94;4484395;31;20115;-78
2022/11/28 10:11:23;;;;;;;30.08;9.60;;;;;;;2.84;100.00;99390.53;4484874;31;20149;-77
2022/11/28 10:14:15;;;;;;;25.75;8.65;;;;;;;2.94;100.00;99390.94;4483806;32;20130;-77
2022/11/28 10:16:54;;;;;;;25.10;10.45;;;;;;;2.79;100.00;99386.50;4485404;31;20125;-77
2022/11/28 10:19:44;;;;;;;30.95;10.32;;;;;;;2.90;100.00;99388.56;4482702;32;20158;-78
2022/11/28 10:22:51;;;;;;;22.17;9.15;;;;;;;2.93;100.00;99391.00;4482554;32;20100;-78
2022/11/28 10:25:23;;;;;;;22.70;9.80;;;;;;;2.98;100.00;99389.03;4423875;32;20125;-78
2022/11/28 10:27:51;;;;;;;26.15;10.38;;;;;;;2.87;100.00;99384.37;4439444;32;20135;-78
2022/11/28 10:30:25;;;;;;;35.90;11.60;;;;;;;2.75;100.00;99384.97;4428154;32;20139;-78
2022/11/28 10:33:11;;;;;;;28.33;10.63;;;;;;;2.84;100.00;99379.34;4439546;32;20133;-77
2022/11/28 10:35:45;;;;;;;24.30;9.38;;;;;;;2.82;100.00;99382.00;4450048;32;20155;-77
2022/11/28 10:38:13;;;;;;;32.75;10.90;;;;;;;2.74;100.00;99378.09;4432511;32;20205;-78
2022/11/28 10:40:43;;;;;;;26.95;10.00;;;;;;;2.76;100.00;99361.59;4436234;32;20319;-78
2022/11/28 10:43:18;;;;;;;25.42;9.15;;;;;;;2.96;100.00;99365.81;4445850;32;20128;-76
2022/11/28 10:46:04;;;;;;;23.87;10.43;;;;;;;2.98;100.00;99358.81;4429091;32;20147;-77
2022/11/28 10:48:44;;;;;;;21.42;9.27;;;;;;;2.90;100.00;99354.94;4422189;32;20475;-76
2022/11/28 10:51:41;;;;;;;25.25;9.82;;;;;;;2.98;100.00;99358.81;4434880;32;20114;-75
2022/11/28 10:54:46;;;;;;;30.92;11.77;;;;;;;3.00;100.00;99358.75;4438973;32;20586;-77
2022/11/28 10:57:26;;;;;;;28.73;10.38;;;;;;;2.98;100.00;99351.06;4435845;32;20173;-76
2022/11/28 11:00:12;;;;;;;31.37;11.12;;;;;;;2.98;100.00;99350.19;4423154;32;20105;-76
2022/11/28 11:02:43;;;;;;;28.48;11.55;;;;;;;3.00;100.00;99349.22;4448517;32;20586;-76
2022/11/28 11:05:14;;;;;;;32.60;11.55;;;;;;;3.24;100.00;99345.50;4467659;32;20501;-76
2022/11/28 11:07:51;;;;;;;33.70;13.00;;;;;;;3.22;100.00;99348.16;4467732;32;20140;-76
2022/11/28 11:10:39;;;;;;;31.17;12.65;;;;;;;3.04;100.00;99336.97;4485234;31;20106;-75
2022/11/28 11:13:16;;;;;;;27.87;12.37;;;;;;;3.12;100.00;99341.75;4484718;31;20104;-77
2022/11/28 11:15:44;;;;;;;31.90;12.13;;;;;;;3.11;100.00;99345.28;4480512;32;20224;-75
2022/11/28 11:18:25;;;;;;;34.22;12.43;;;;;;;3.10;100.00;99351.34;4482482;32;20147;-76
2022/11/28 11:21:14;;;;;;;39.03;12.82;;;;;;;3.11;100.00;99350.47;4483271;31;20902;-75
2022/11/28 11:23:42;;;;;;;32.13;11.40;;;;;;;3.29;100.00;99349.53;4484756;31;20122;-77
2022/11/28 11:26:22;;;;;;;27.70;10.57;;;;;;;3.29;100.00;99346.94;4484490;31;20164;-75
2022/11/28 11:28:51;;;;;;;35.58;11.23;;;;;;;3.16;100.00;99345.87;4484382;31;20115;-74
2022/11/28 11:31:30;;;;;;;34.05;11.48;;;;;;;3.21;100.00;99343.91;4483434;32;20439;-75
2022/11/28 11:34:01;;;;;;;29.15;12.10;;;;;;;3.23;100.00;99346.44;4482801;32;20080;-75
2022/11/28 11:36:34;;;;;;;35.47;13.10;;;;;;;3.31;100.00;99342.53;4482670;32;20440;-74
2022/11/28 11:39:06;;;;;;;38.30;14.35;;;;;;;3.24;100.00;99338.59;4479681;31;20852;-73
2022/11/28 11:41:33;;;;;;;29.90;12.68;;;;;;;3.19;100.00;99337.97;4476512;32;20550;-74
2022/11/28 11:44:12;;;;;;;35.17;13.93;;;;;;;3.19;100.00;99338.81;4475739;32;20161;-72